Time;durP1;ratioP1;P1;durP2;ratioP2;P2;SDS_P1;SDS_P2;PMS_P1;PMS_P2;Temp;Humidity;BMP_temperature;BMP_pressure;BME280_temperature;BME280_humidity;BME280_pressure;Samples;Min_cycle;Max_cycle;Signal;HPM_P1;HPM_P2
2022/04/02 00:02:14;;;;;;;9.40;3.43;;;;;;;13.20;100.00;97775.06;5071318;28;20579;-60
2022/04/02 00:04:41;;;;;;;6.03;3.20;;;;;;;13.32;100.00;97774.25;5070961;28;20199;-59
2022/04/02 00:07:08;;;;;;;4.57;4.30;;;;;;;13.34;100.00;97774.16;5071096;28;20249;-60
2022/04/02 00:09:36;;;;;;;6.00;4.53;;;;;;;13.10;100.00;97756.84;5071082;28;20199;-60
2022/04/02 00:12:04;;;;;;;6.70;4.40;;;;;;;13.11;100.00;97761.09;5070857;28;20231;-59
2022/04/02 00:14:30;;;;;;;6.03;4.27;;;;;;;13.17;100.00;97754.69;5071118;28;20200;-59
2022/04/02 00:16:57;;;;;;;5.90;4.23;;;;;;;13.18;100.00;97748.63;5070825;28;20286;-60
2022/04/02 00:19:24;;;;;;;5.90;4.23;;;;;;;13.05;100.00;97746.00;5071174;28;20239;-60
2022/04/02 00:21:51;;;;;;;13.97;4.43;;;;;;;13.00;100.00;97752.38;5070738;28;20619;-60
2022/04/02 00:24:18;;;;;;;7.03;5.10;;;;;;;12.89;100.00;97740.22;5070773;28;20243;-60
2022/04/02 00:26:46;;;;;;;11.67;6.07;;;;;;;13.06;100.00;97751.97;5071175;28;20208;-59
2022/04/02 00:29:13;;;;;;;7.93;4.90;;;;;;;13.02;100.00;97740.25;5068460;28;20282;-59
2022/04/02 00:31:43;;;;;;;10.17;5.93;;;;;;;13.15;100.00;97754.78;5071128;28;20207;-60
2022/04/02 00:34:10;;;;;;;7.43;6.23;;;;;;;13.16;100.00;97758.19;5070428;28;20199;-60
2022/04/02 00:36:38;;;;;;;6.93;4.93;;;;;;;13.20;100.00;97759.63;5067386;28;20198;-61
2022/04/02 00:39:07;;;;;;;13.50;5.43;;;;;;;13.20;100.00;97771.69;5068274;28;20200;-60
2022/04/02 00:41:35;;;;;;;6.73;4.97;;;;;;;13.16;100.00;97758.19;5070656;28;20254;-60
2022/04/02 00:44:10;;;;;;;8.13;5.13;;;;;;;13.25;100.00;97764.50;5069521;28;20220;-60
2022/04/02 00:46:39;;;;;;;8.43;5.43;;;;;;;13.28;100.00;97759.94;5070828;28;20207;-60
2022/04/02 00:49:06;;;;;;;10.03;5.30;;;;;;;13.17;100.00;97734.13;5070667;28;20199;-60
2022/04/02 00:51:34;;;;;;;9.53;4.77;;;;;;;13.17;100.00;97723.81;5070621;28;20242;-59
2022/04/02 00:54:02;;;;;;;6.17;5.27;;;;;;;13.11;100.00;97730.22;5070533;28;20251;-59
2022/04/02 00:56:29;;;;;;;7.90;5.03;;;;;;;13.02;100.00;97724.84;5070680;28;20286;-59
2022/04/02 00:58:56;;;;;;;5.53;4.40;;;;;;;13.12;100.00;97731.00;5070468;28;20608;-60
2022/04/02 01:01:24;;;;;;;5.83;4.40;;;;;;;12.95;100.00;97754.44;5070531;28;20214;-61
2022/04/02 01:03:51;;;;;;;6.63;6.03;;;;;;;12.66;100.00;97742.66;5070451;28;20763;-60
2022/04/02 01:06:18;;;;;;;7.87;5.10;;;;;;;12.39;100.00;97746.09;5070333;28;20192;-59
2022/04/02 01:08:45;;;;;;;5.87;5.20;;;;;;;12.52;100.00;97740.97;5070776;28;20223;-60
2022/04/02 01:11:12;;;;;;;12.80;4.80;;;;;;;12.57;100.00;97746.63;5070685;28;20204;-60
2022/04/02 01:13:39;;;;;;;4.43;4.03;;;;;;;12.56;100.00;97737.28;5074439;28;20227;-60
2022/04/02 01:16:06;;;;;;;9.23;4.63;;;;;;;12.67;100.00;97749.44;5074059;28;20212;-61
2022/04/02 01:18:35;;;;;;;9.50;5.40;;;;;;;12.73;100.00;97739.56;5074152;28;20196;-60
2022/04/02 01:21:02;;;;;;;8.57;5.10;;;;;;;12.58;100.00;97728.56;5074298;28;20200;-60
2022/04/02 01:23:31;;;;;;;8.00;5.07;;;;;;;12.56;100.00;97737.28;5073851;28;20227;-59
2022/04/02 01:25:59;;;;;;;7.87;4.70;;;;;;;12.45;100.00;97725.13;5074132;28;20739;-60
2022/04/02 01:28:33;;;;;;;6.37;4.40;;;;;;;12.18;100.00;97716.59;5073773;28;20196;-60
2022/04/02 01:31:02;;;;;;;9.50;4.33;;;;;;;12.29;100.00;97728.78;5073987;28;20200;-59
2022/04/02 01:33:35;;;;;;;4.57;4.27;;;;;;;12.16;100.00;97723.59;5073867;28;20200;-60
2022/04/02 01:36:07;;;;;;;5.37;4.87;;;;;;;12.15;100.00;97734.78;5073818;28;20282;-60
2022/04/02 01:38:35;;;;;;;11.33;5.00;;;;;;;12.19;100.00;97749.06;5072964;28;20196;-59
2022/04/02 01:41:02;;;;;;;10.33;6.17;;;;;;;12.15;100.00;97759.66;5073000;28;20211;-60
2022/04/02 01:43:29;;;;;;;7.03;5.47;;;;;;;12.06;100.00;97743.88;5073375;28;20323;-60
2022/04/02 01:45:57;;;;;;;7.03;4.70;;;;;;;12.19;100.00;97733.66;5073773;28;20207;-60
2022/04/02 01:48:24;;;;;;;6.53;4.67;;;;;;;12.26;100.00;97734.09;5073731;28;20200;-60
2022/04/02 01:50:52;;;;;;;8.27;5.83;;;;;;;12.30;100.00;97741.53;5073700;28;20204;-59
2022/04/02 01:53:20;;;;;;;8.87;5.33;;;;;;;12.31;100.00;97726.94;5073454;28;20747;-60
2022/04/02 01:55:49;;;;;;;5.10;4.70;;;;;;;12.29;100.00;97739.03;5073534;28;20723;-59
2022/04/02 01:58:17;;;;;;;4.63;4.23;;;;;;;11.92;100.00;97709.72;5073402;28;20203;-60
2022/04/02 02:00:45;;;;;;;6.07;5.60;;;;;;;12.27;100.00;97767.41;5073537;28;20630;-59
2022/04/02 02:03:12;;;;;;;6.57;5.87;;;;;;;12.27;100.00;97766.59;5073425;28;20216;-60
2022/04/02 02:05:40;;;;;;;5.47;3.57;;;;;;;12.12;100.00;97773.50;5073326;28;20207;-60
2022/04/02 02:08:07;;;;;;;5.83;3.63;;;;;;;12.19;100.00;97774.75;5073403;28;20207;-60
2022/04/02 02:10:34;;;;;;;6.63;3.30;;;;;;;12.25;100.00;97764.09;5072999;28;20291;-60
2022/04/02 02:13:03;;;;;;;5.80;3.23;;;;;;;12.19;100.00;97779.91;5073504;28;20200;-59
2022/04/02 02:15:30;;;;;;;3.07;2.60;;;;;;;12.07;100.00;97770.41;5073190;28;20755;-60
2022/04/02 02:17:57;;;;;;;5.53;3.17;;;;;;;12.20;100.00;97781.56;5073108;28;20196;-60
2022/04/02 02:20:24;;;;;;;3.27;2.97;;;;;;;12.35;100.00;97790.88;5073063;28;20204;-60
2022/04/02 02:22:51;;;;;;;5.00;2.40;;;;;;;12.42;100.00;97793.88;5072446;28;20794;-59
2022/04/02 02:25:19;;;;;;;3.53;2.47;;;;;;;12.26;100.00;97776.03;5072929;28;20208;-59
2022/04/02 02:27:49;;;;;;;2.93;2.60;;;;;;;12.08;100.00;97777.19;5072952;28;20196;-60
2022/04/02 02:30:18;;;;;;;3.23;2.93;;;;;;;12.17;100.00;97812.56;5073040;28;20196;-60
2022/04/02 02:32:46;;;;;;;5.60;3.40;;;;;;;11.98;100.00;97812.06;5072019;28;20204;-59
2022/04/02 02:38:07;;;;;;;11.20;4.07;;;;;;;11.87;100.00;97832.41;5072221;28;20222;-59
2022/04/02 02:40:34;;;;;;;4.03;3.27;;;;;;;11.86;100.00;97812.78;5071491;28;20207;-59
2022/04/02 02:43:01;;;;;;;3.63;3.10;;;;;;;11.89;100.00;97817.75;5072857;28;20600;-60
2022/04/02 02:45:31;;;;;;;4.73;3.67;;;;;;;11.96;100.00;97824.97;5072351;28;20204;-60
2022/04/02 02:47:58;;;;;;;5.30;3.53;;;;;;;11.93;100.00;97824.34;5072543;28;20633;-59
2022/04/02 02:50:25;;;;;;;5.43;3.53;;;;;;;11.84;100.00;97800.06;5072397;28;20200;-60
2022/04/02 02:52:52;;;;;;;5.73;3.77;;;;;;;11.91;100.00;97839.03;5072259;28;20189;-60
2022/04/02 02:55:19;;;;;;;4.93;3.50;;;;;;;11.94;100.00;97846.53;5072357;28;20196;-59
2022/04/02 02:57:47;;;;;;;6.03;4.13;;;;;;;11.99;100.00;97849.63;5072280;28;20203;-59
2022/04/02 03:00:16;;;;;;;3.87;3.47;;;;;;;12.02;100.00;97846.88;5072429;28;20588;-59
2022/04/02 03:02:44;;;;;;;4.57;3.80;;;;;;;12.05;100.00;97844.97;5071897;28;20196;-68
2022/04/02 03:05:12;;;;;;;5.83;3.20;;;;;;;12.01;100.00;97824.72;5072221;28;20235;-68
2022/04/02 03:07:41;;;;;;;4.40;2.90;;;;;;;12.10;100.00;97852.41;5071866;28;20204;-68
2022/04/02 03:10:09;;;;;;;5.67;3.80;;;;;;;12.03;100.00;97841.66;5072097;28;20258;-68
2022/04/02 03:12:36;;;;;;;7.67;5.23;;;;;;;12.05;100.00;97824.41;5071771;28;20236;-68
2022/04/02 03:15:03;;;;;;;11.87;5.83;;;;;;;12.12;100.00;97840.28;5071797;28;20196;-68
2022/04/02 03:17:31;;;;;;;6.93;6.23;;;;;;;12.04;100.00;97838.19;5071875;28;20558;-68
2022/04/02 03:20:00;;;;;;;6.33;5.00;;;;;;;12.02;100.00;97840.00;5071838;28;20282;-68
2022/04/02 03:22:27;;;;;;;12.20;4.43;;;;;;;11.95;100.00;97832.78;5071589;28;20289;-68
2022/04/02 03:24:54;;;;;;;7.30;3.90;;;;;;;11.95;100.00;97830.22;5071657;28;20207;-68
2022/04/02 03:27:21;;;;;;;6.97;4.60;;;;;;;11.98;100.00;97848.00;5071859;28;20200;-68
2022/04/02 03:29:48;;;;;;;6.30;4.90;;;;;;;11.95;100.00;97861.03;5071506;28;20238;-68
2022/04/02 03:32:15;;;;;;;10.33;7.50;;;;;;;11.85;100.00;97853.06;5070854;28;20620;-68
2022/04/02 03:34:42;;;;;;;11.13;8.70;;;;;;;11.54;100.00;97851.44;5070147;28;20200;-68
2022/04/02 03:37:13;;;;;;;12.47;8.50;;;;;;;11.34;100.00;97840.69;5071250;28;20199;-60
2022/04/02 03:39:40;;;;;;;13.30;7.20;;;;;;;11.43;100.00;97861.50;5071958;28;20200;-60
2022/04/02 03:42:09;;;;;;;10.33;6.60;;;;;;;11.36;100.00;97867.91;5069005;28;20303;-60
2022/04/02 03:44:36;;;;;;;8.17;5.87;;;;;;;11.43;100.00;97871.78;5071325;28;20764;-59
2022/04/02 03:47:09;;;;;;;11.07;5.47;;;;;;;11.47;100.00;97878.34;5071183;28;20208;-60
2022/04/02 03:49:36;;;;;;;9.97;5.67;;;;;;;11.29;100.00;97892.25;5071493;28;20664;-60
2022/04/02 03:52:03;;;;;;;6.00;5.33;;;;;;;11.28;100.00;97898.28;5071310;28;20290;-59
2022/04/02 03:54:31;;;;;;;10.80;5.37;;;;;;;11.20;100.00;97897.91;5071303;28;20278;-59
2022/04/02 03:56:59;;;;;;;5.67;4.80;;;;;;;11.16;100.00;97893.88;5071071;28;20196;-60
2022/04/02 03:59:26;;;;;;;8.67;5.00;;;;;;;11.24;100.00;97911.41;5071584;28;20638;-59
2022/04/02 04:01:53;;;;;;;4.97;4.57;;;;;;;11.26;100.00;97910.38;5071139;28;20282;-61
2022/04/02 04:04:19;;;;;;;6.40;4.60;;;;;;;11.32;100.00;97915.16;5071207;28;20212;-59
2022/04/02 04:06:47;;;;;;;5.80;3.90;;;;;;;11.38;100.00;97919.13;5071322;28;20282;-59
2022/04/02 04:09:14;;;;;;;6.50;3.63;;;;;;;11.40;100.00;97922.44;5071087;28;20312;-60
2022/04/02 04:11:42;;;;;;;8.57;4.10;;;;;;;11.37;100.00;97927.75;5071389;28;20716;-59
2022/04/02 04:14:09;;;;;;;4.83;3.77;;;;;;;11.39;100.00;97941.31;5071210;28;20204;-60
2022/04/02 04:16:36;;;;;;;8.40;4.10;;;;;;;11.40;100.00;97948.94;5067166;28;20200;-63
2022/04/02 04:19:03;;;;;;;12.33;4.40;;;;;;;11.41;100.00;97950.56;5070865;28;20227;-63
2022/04/02 04:21:30;;;;;;;4.50;4.10;;;;;;;11.37;100.00;97943.94;5070850;28;20636;-63
2022/04/02 04:23:57;;;;;;;3.60;3.27;;;;;;;11.23;100.00;97925.94;5070634;28;20247;-63
2022/04/02 04:26:24;;;;;;;7.90;5.47;;;;;;;11.33;100.00;97957.88;5070888;28;20200;-63
2022/04/02 04:28:52;;;;;;;8.03;6.03;;;;;;;11.22;100.00;97955.06;5070805;28;20274;-63
2022/04/02 04:31:20;;;;;;;9.33;7.17;;;;;;;10.90;100.00;97912.44;5070420;28;20703;-60
2022/04/02 04:33:48;;;;;;;10.27;6.50;;;;;;;11.10;100.00;97932.69;5069630;28;20200;-60
2022/04/02 04:36:16;;;;;;;10.73;7.07;;;;;;;11.29;100.00;97941.00;5070737;28;20287;-60
2022/04/02 04:38:43;;;;;;;12.93;8.87;;;;;;;11.07;100.00;97920.03;5070863;28;20203;-60
2022/04/02 04:41:10;;;;;;;11.93;7.40;;;;;;;11.33;100.00;97952.75;5070817;28;20196;-60
2022/04/02 04:43:37;;;;;;;10.17;5.77;;;;;;;11.39;100.00;97952.41;5070628;28;20305;-60
2022/04/02 04:46:05;;;;;;;11.03;6.50;;;;;;;11.31;100.00;97907.56;5072743;28;20664;-61
2022/04/02 04:48:32;;;;;;;7.10;5.83;;;;;;;11.53;100.00;97929.31;5074835;28;20192;-60
2022/04/02 04:50:59;;;;;;;11.10;6.33;;;;;;;11.71;100.00;97954.88;5074634;28;20196;-59
2022/04/02 04:53:26;;;;;;;6.93;6.20;;;;;;;11.72;100.00;97946.28;5072185;28;20696;-60
2022/04/02 04:55:53;;;;;;;9.10;5.50;;;;;;;11.78;100.00;97951.88;5074941;28;20200;-59
2022/04/02 04:58:20;;;;;;;6.80;6.20;;;;;;;11.38;100.00;97961.00;5074626;28;20747;-64
2022/04/02 05:00:47;;;;;;;9.67;6.83;;;;;;;11.20;100.00;97972.28;5074504;28;20200;-63
2022/04/02 05:03:16;;;;;;;7.40;5.97;;;;;;;11.27;100.00;97971.03;5074299;28;20298;-63
2022/04/02 05:05:42;;;;;;;5.90;4.80;;;;;;;11.48;100.00;97987.78;5074343;28;20227;-63
2022/04/02 05:08:10;;;;;;;5.33;4.70;;;;;;;11.58;100.00;97983.78;5074386;28;20279;-68
2022/04/02 05:10:40;;;;;;;6.03;5.37;;;;;;;11.73;100.00;97987.25;5074447;28;20600;-68
2022/04/02 05:13:08;;;;;;;6.43;5.13;;;;;;;12.00;100.00;97988.25;5074366;28;20667;-68
2022/04/02 05:15:35;;;;;;;9.57;5.20;;;;;;;12.10;100.00;97978.25;5074256;28;20291;-68
2022/04/02 05:18:03;;;;;;;7.27;4.93;;;;;;;12.34;100.00;97994.78;5074052;28;20210;-68
2022/04/02 05:20:31;;;;;;;6.70;5.40;;;;;;;12.43;100.00;97976.25;5073914;28;20299;-68
2022/04/02 05:22:58;;;;;;;12.10;5.90;;;;;;;12.71;100.00;98013.13;5074074;28;20220;-69
2022/04/02 05:25:26;;;;;;;6.50;5.03;;;;;;;12.82;100.00;98015.88;5073160;28;20290;-68
2022/04/02 05:27:54;;;;;;;11.07;5.53;;;;;;;13.01;100.00;98011.25;5073555;28;20208;-68
2022/04/02 05:30:21;;;;;;;11.17;6.17;;;;;;;13.22;100.00;98014.25;5072984;28;20204;-68
2022/04/02 05:32:48;;;;;;;7.17;4.63;;;;;;;13.34;100.00;98009.19;5073837;28;20204;-68
2022/04/02 05:35:15;;;;;;;13.17;4.93;;;;;;;13.50;100.00;98009.03;5073722;28;20196;-69
2022/04/02 05:37:47;;;;;;;4.97;4.10;;;;;;;13.65;100.00;98019.16;5073989;28;20668;-69
2022/04/02 05:40:14;;;;;;;7.20;4.40;;;;;;;13.68;100.00;98023.28;5073758;28;20207;-68
2022/04/02 05:42:41;;;;;;;8.20;4.10;;;;;;;13.99;100.00;98022.13;5073735;28;20664;-68
2022/04/02 05:45:09;;;;;;;8.10;3.53;;;;;;;14.20;100.00;98015.56;5073607;28;20212;-68
2022/04/02 05:47:42;;;;;;;10.93;5.10;;;;;;;14.46;100.00;98017.25;5073576;28;20206;-68
2022/04/02 05:50:11;;;;;;;10.77;4.93;;;;;;;14.64;100.00;98020.31;5073533;28;20258;-70
2022/04/02 05:52:38;;;;;;;8.27;4.87;;;;;;;14.77;100.00;98028.03;5073346;28;20196;-69
2022/04/02 05:55:09;;;;;;;10.60;4.73;;;;;;;15.04;100.00;98026.94;5073410;28;20196;-68
2022/04/02 05:57:36;;;;;;;10.73;5.23;;;;;;;15.26;100.00;98026.25;5072568;28;20196;-68
2022/04/02 06:00:05;;;;;;;6.53;4.80;;;;;;;15.34;100.00;98023.97;5073433;28;20288;-68
2022/04/02 06:02:32;;;;;;;10.70;4.90;;;;;;;15.52;100.00;98029.59;5073192;28;20287;-68
2022/04/02 06:05:00;;;;;;;12.27;5.20;;;;;;;15.80;100.00;98031.03;5073322;28;20226;-68
2022/04/02 06:07:27;;;;;;;10.63;4.50;;;;;;;16.02;100.00;98038.84;5073121;28;20299;-68
2022/04/02 06:09:54;;;;;;;4.70;4.13;;;;;;;16.31;100.00;98034.91;5073185;28;20285;-68
2022/04/02 06:12:22;;;;;;;7.77;4.60;;;;;;;16.61;98.93;98042.97;5073073;28;20279;-68
2022/04/02 06:14:49;;;;;;;7.97;5.67;;;;;;;16.79;98.16;98043.34;5073309;28;20199;-68
2022/04/02 06:17:16;;;;;;;7.93;4.73;;;;;;;17.00;97.18;98033.06;5073381;28;20203;-68
2022/04/02 06:19:43;;;;;;;9.93;4.57;;;;;;;17.13;95.47;98038.94;5073094;28;20208;-68
2022/04/02 06:22:10;;;;;;;6.93;4.23;;;;;;;17.34;97.72;98037.28;5072926;28;20266;-68
2022/04/02 06:24:37;;;;;;;8.13;4.03;;;;;;;17.54;98.48;98038.28;5071937;28;20224;-69
2022/04/02 06:27:05;;;;;;;3.63;3.33;;;;;;;17.58;88.91;98024.97;5072271;28;20292;-69
2022/04/02 06:29:33;;;;;;;5.83;3.80;;;;;;;17.57;92.74;98036.31;5071874;28;20211;-71
2022/04/02 06:32:00;;;;;;;5.67;3.80;;;;;;;17.52;92.06;98043.56;5072831;28;20203;-68
2022/04/02 06:34:27;;;;;;;7.53;4.20;;;;;;;17.68;92.12;98036.25;5072976;28;20212;-69
2022/04/02 06:36:54;;;;;;;6.43;4.57;;;;;;;17.86;93.61;98040.91;5072533;28;20200;-68
2022/04/02 06:39:21;;;;;;;9.77;4.40;;;;;;;18.05;92.79;98041.03;5072652;28;20200;-68
2022/04/02 06:41:48;;;;;;;4.87;4.53;;;;;;;18.26;93.87;98037.50;5071450;28;20287;-69
2022/04/02 06:44:16;;;;;;;7.83;4.07;;;;;;;18.48;90.87;98048.69;5072641;28;20618;-69
2022/04/02 06:46:44;;;;;;;6.27;3.90;;;;;;;18.57;90.23;98046.19;5072292;28;20204;-69
2022/04/02 06:49:11;;;;;;;5.30;3.83;;;;;;;18.73;88.16;98054.31;5072444;28;20207;-71
2022/04/02 06:51:38;;;;;;;4.80;3.03;;;;;;;18.82;85.63;98056.13;5072224;28;20295;-70
2022/04/02 06:54:06;;;;;;;9.83;3.80;;;;;;;18.77;88.10;98058.28;5072304;28;20560;-69
2022/04/02 06:56:33;;;;;;;6.33;4.37;;;;;;;18.60;88.52;98061.50;5072244;28;20282;-69
2022/04/02 06:59:00;;;;;;;4.00;3.60;;;;;;;18.51;86.55;98041.50;5072026;28;20207;-68
2022/04/02 07:01:26;;;;;;;4.63;3.30;;;;;;;18.84;85.81;98049.03;5072311;28;20227;-68
2022/04/02 07:03:55;;;;;;;9.07;4.47;;;;;;;19.08;83.15;98053.06;5072097;28;20196;-63
2022/04/02 07:06:22;;;;;;;8.30;3.10;;;;;;;19.29;80.83;98048.59;5072083;28;20215;-63
2022/04/02 07:08:49;;;;;;;2.60;2.40;;;;;;;19.46;78.06;98048.00;5071844;28;20196;-68
2022/04/02 07:11:15;;;;;;;3.23;2.80;;;;;;;19.68;77.81;98050.34;5072196;28;20723;-68
2022/04/02 07:13:42;;;;;;;2.97;1.93;;;;;;;19.91;74.83;98062.13;5071844;28;20284;-68
2022/04/02 07:16:09;;;;;;;4.87;2.43;;;;;;;19.98;72.38;98051.19;5072200;28;20283;-71
2022/04/02 07:18:42;;;;;;;2.70;2.47;;;;;;;19.63;72.96;98046.53;5071849;28;20204;-68
2022/04/02 07:21:14;;;;;;;3.57;1.50;;;;;;;19.67;73.01;98056.53;5071872;28;20761;-69
2022/04/02 07:23:42;;;;;;;1.60;1.50;;;;;;;19.38;68.77;98068.63;5070941;28;20227;-68
2022/04/02 07:26:11;;;;;;;4.50;1.57;;;;;;;19.70;69.39;98073.63;5070610;28;20222;-68
2022/04/02 07:28:38;;;;;;;3.23;1.47;;;;;;;19.81;66.38;98071.72;5071777;28;20310;-71
2022/04/02 07:31:05;;;;;;;1.20;1.20;;;;;;;19.82;65.13;98075.97;5071569;28;20211;-68
2022/04/02 07:33:32;;;;;;;2.00;1.30;;;;;;;20.12;64.19;98066.38;5071587;28;20286;-67
2022/04/02 07:36:08;;;;;;;1.63;1.10;;;;;;;20.43;62.78;98066.09;5071556;28;20228;-68
2022/04/02 07:38:41;;;;;;;1.50;1.40;;;;;;;20.58;60.26;98066.44;5071770;28;20671;-70
2022/04/02 07:41:20;;;;;;;1.30;1.07;;;;;;;20.67;61.08;98076.03;5071507;28;20211;-67
2022/04/02 07:43:51;;;;;;;2.70;1.30;;;;;;;20.98;60.59;98075.78;5067037;28;20229;-66
2022/04/02 07:46:20;;;;;;;2.10;1.10;;;;;;;21.16;59.61;98066.28;5070573;28;20230;-66
2022/04/02 07:48:49;;;;;;;1.40;1.07;;;;;;;21.49;58.70;98075.31;5070601;28;20664;-66
2022/04/02 07:51:18;;;;;;;2.60;1.20;;;;;;;21.73;62.50;98081.59;5069010;28;20239;-60
2022/04/02 07:53:49;;;;;;;1.73;0.97;;;;;;;21.97;57.15;98084.44;5070912;28;20209;-61
2022/04/02 07:56:20;;;;;;;1.10;1.00;;;;;;;22.10;52.30;98072.81;5070958;28;20306;-68
2022/04/02 07:58:51;;;;;;;2.07;1.10;;;;;;;22.18;52.54;98080.69;5071223;28;20201;-68
2022/04/02 08:01:20;;;;;;;1.73;1.07;;;;;;;22.12;52.82;98066.47;5070023;28;20215;-68
2022/04/02 08:03:48;;;;;;;1.30;1.27;;;;;;;22.21;59.45;98054.28;5070923;28;20289;-68
2022/04/02 08:06:15;;;;;;;2.90;1.70;;;;;;;22.38;56.66;98061.28;5070353;28;20227;-69
2022/04/02 08:08:43;;;;;;;1.07;1.00;;;;;;;22.54;53.63;98081.47;5071171;28;20226;-68
2022/04/02 08:11:12;;;;;;;2.70;1.10;;;;;;;22.49;54.10;98074.06;5070722;28;20270;-68
2022/04/02 08:13:41;;;;;;;1.63;1.00;;;;;;;22.17;50.06;98068.63;5070977;28;20281;-69
2022/04/02 08:16:09;;;;;;;1.93;0.80;;;;;;;22.33;50.64;98058.28;5070940;28;20625;-69
2022/04/02 08:18:39;;;;;;;1.70;1.00;;;;;;;22.13;48.38;98062.06;5070754;28;20194;-68
2022/04/02 08:21:07;;;;;;;1.67;1.57;;;;;;;22.31;51.09;98070.69;5068726;28;20203;-68
2022/04/02 08:23:34;;;;;;;2.17;1.43;;;;;;;22.59;50.98;98069.56;5069748;28;20322;-69
2022/04/02 08:26:16;;;;;;;1.20;1.10;;;;;;;22.75;48.27;98077.53;5070980;28;20710;-69
2022/04/02 08:28:56;;;;;;;1.10;0.90;;;;;;;22.78;50.96;98063.38;5071052;28;20614;-68
2022/04/02 08:31:31;;;;;;;1.20;0.90;;;;;;;22.76;49.45;98065.28;5069502;28;20299;-69
2022/04/02 08:34:11;;;;;;;5.60;1.17;;;;;;;22.25;49.96;98060.84;5070501;28;20198;-69
2022/04/02 08:36:43;;;;;;;1.87;1.63;;;;;;;22.36;51.28;98039.72;5070841;28;20285;-68
2022/04/02 08:39:19;;;;;;;0.93;0.93;;;;;;;22.64;46.60;98056.88;5070882;28;20203;-68
2022/04/02 08:42:25;;;;;;;1.47;1.10;;;;;;;22.52;50.05;98042.41;5070816;28;20285;-68
2022/04/02 08:45:07;;;;;;;1.70;0.87;;;;;;;22.72;52.52;98043.88;5070872;28;20269;-68
2022/04/02 08:48:20;;;;;;;0.90;0.90;;;;;;;22.98;47.12;98034.22;5070778;28;20202;-68
2022/04/02 08:50:49;;;;;;;0.90;0.90;;;;;;;23.07;46.97;98036.88;5070669;28;20671;-68
2022/04/02 08:53:21;;;;;;;0.80;0.80;;;;;;;23.25;48.21;98041.03;5070733;28;20722;-66
2022/04/02 08:55:56;;;;;;;2.07;1.00;;;;;;;23.08;46.75;98041.09;5070729;28;20195;-66
2022/04/02 08:58:32;;;;;;;1.20;0.80;;;;;;;23.16;42.63;98044.59;5070422;28;20294;-66
2022/04/02 09:01:07;;;;;;;0.90;0.90;;;;;;;23.01;42.62;98018.22;5070581;28;20234;-66
2022/04/02 09:04:10;;;;;;;1.10;0.80;;;;;;;22.83;42.58;98027.13;5070755;28;20282;-66
2022/04/02 09:07:08;;;;;;;0.90;0.90;;;;;;;23.14;46.67;98040.47;5070297;28;20722;-66
2022/04/02 09:10:14;;;;;;;1.90;1.00;;;;;;;23.16;46.64;98041.16;5070445;28;20286;-66
2022/04/02 09:13:03;;;;;;;0.90;0.90;;;;;;;23.30;48.11;98032.69;5023225;28;20203;-66
2022/04/02 09:15:50;;;;;;;2.00;1.10;;;;;;;23.44;50.12;98025.09;5070225;28;20667;-65
2022/04/02 09:18:31;;;;;;;1.70;1.40;;;;;;;23.44;49.04;98029.50;5069946;28;20660;-66
2022/04/02 09:21:01;;;;;;;1.40;1.13;;;;;;;23.47;44.71;98026.56;5068910;28;20223;-66
2022/04/02 09:23:43;;;;;;;1.60;1.07;;;;;;;23.47;44.58;98026.56;5070099;28;20227;-65
2022/04/02 09:26:52;;;;;;;1.00;1.00;;;;;;;23.54;45.59;98022.31;5070296;28;20212;-66
2022/04/02 09:29:27;;;;;;;0.80;0.80;;;;;;;23.84;48.65;98023.50;4969502;28;20763;-66
2022/04/02 09:32:25;;;;;;;1.00;1.00;;;;;;;23.66;46.55;98012.34;5061132;28;20204;-66
2022/04/02 09:35:19;;;;;;;1.20;1.10;;;;;;;23.48;47.82;98015.13;5074015;28;20656;-66
2022/04/02 09:38:06;;;;;;;1.00;1.00;;;;;;;23.26;45.36;98013.09;5073774;28;20207;-65
2022/04/02 09:40:39;;;;;;;1.30;1.20;;;;;;;23.33;45.54;98016.66;5073796;28;20200;-65
2022/04/02 09:43:18;;;;;;;1.30;1.30;;;;;;;23.04;43.91;98019.69;5073556;28;20291;-60
2022/04/02 09:46:06;;;;;;;1.03;1.03;;;;;;;23.02;48.56;98017.25;5073800;28;20710;-60
2022/04/02 09:48:48;;;;;;;2.20;1.40;;;;;;;23.16;46.32;98005.38;5072499;28;20210;-61
2022/04/02 09:51:17;;;;;;;2.53;1.50;;;;;;;23.43;47.00;98012.16;5073787;28;20246;-61
2022/04/02 09:53:54;;;;;;;1.20;1.20;;;;;;;23.19;45.34;97999.00;5073598;28;20204;-61
2022/04/02 09:56:28;;;;;;;7.53;6.83;;;;;;;23.38;45.10;98003.94;5073747;28;20572;-61
2022/04/02 09:59:19;;;;;;;2.10;2.00;;;;;;;23.48;48.20;98009.88;5071023;28;20302;-61
2022/04/02 10:01:52;;;;;;;4.80;4.27;;;;;;;23.54;45.95;97993.53;5073868;28;20207;-61
2022/04/02 10:04:41;;;;;;;3.30;2.23;;;;;;;23.42;48.02;98010.53;5073737;28;20668;-60
2022/04/02 10:07:20;;;;;;;1.20;1.20;;;;;;;23.67;50.69;98004.34;5073293;28;20215;-60
2022/04/02 10:09:50;;;;;;;1.10;1.10;;;;;;;23.28;43.64;98021.56;5073253;28;20204;-60
2022/04/02 10:12:19;;;;;;;1.73;1.10;;;;;;;23.27;45.49;98017.31;5073543;28;20715;-60
2022/04/02 10:14:49;;;;;;;1.03;0.97;;;;;;;23.50;46.01;97990.44;5073047;28;20291;-61
2022/04/02 10:17:19;;;;;;;1.23;1.10;;;;;;;23.55;43.14;97996.97;5072900;28;20610;-61
2022/04/02 10:19:52;;;;;;;1.70;1.60;;;;;;;23.39;44.12;97985.47;5072276;28;20208;-61
2022/04/02 10:22:27;;;;;;;1.17;0.97;;;;;;;23.54;49.95;97967.38;5072867;28;20224;-60
2022/04/02 10:25:00;;;;;;;0.93;0.93;;;;;;;23.75;48.17;97980.78;5073256;28;20282;-61
2022/04/02 10:27:32;;;;;;;1.10;1.10;;;;;;;23.87;45.56;97979.50;5071791;28;20230;-61
2022/04/02 10:30:06;;;;;;;1.40;1.30;;;;;;;24.00;49.33;97955.44;5072989;28;20200;-60
2022/04/02 10:32:53;;;;;;;1.70;1.60;;;;;;;24.02;47.80;97969.19;5072993;28;20641;-60
2022/04/02 10:35:23;;;;;;;1.47;1.37;;;;;;;23.99;42.95;97970.34;5072481;28;20207;-61
2022/04/02 10:38:09;;;;;;;0.90;0.90;;;;;;;23.93;42.29;97965.75;5072689;28;20204;-61
2022/04/02 10:40:42;;;;;;;1.07;1.07;;;;;;;24.00;44.80;97961.50;5073097;28;20200;-60
2022/04/02 10:43:24;;;;;;;1.23;1.13;;;;;;;24.02;44.55;97961.31;5070070;28;20279;-61
2022/04/02 10:45:51;;;;;;;1.20;1.20;;;;;;;24.07;45.96;97961.66;5072649;28;20767;-60
2022/04/02 10:48:27;;;;;;;2.07;1.30;;;;;;;23.81;44.42;97967.06;5072661;28;20290;-60
2022/04/02 10:50:56;;;;;;;1.93;1.37;;;;;;;23.79;46.09;97960.34;5072512;28;20648;-60
2022/04/02 10:53:23;;;;;;;4.33;1.00;;;;;;;23.93;47.09;97947.44;5072565;28;20215;-61
2022/04/02 10:55:58;;;;;;;1.27;1.17;;;;;;;23.75;48.18;97948.59;5072343;28;20566;-62
2022/04/02 10:58:25;;;;;;;1.00;1.00;;;;;;;23.77;47.60;97939.59;5072459;28;20199;-61
2022/04/02 11:00:56;;;;;;;1.13;1.00;;;;;;;23.63;45.46;97929.78;5072144;28;20211;-61
2022/04/02 11:03:31;;;;;;;2.27;1.00;;;;;;;23.72;44.11;97933.19;5072270;28;20283;-61
2022/04/02 11:06:02;;;;;;;1.70;1.00;;;;;;;23.14;45.87;97943.75;5072374;28;20630;-60
2022/04/02 11:08:32;;;;;;;2.90;2.70;;;;;;;23.26;48.00;97942.47;5072236;28;20291;-68
2022/04/02 11:10:59;;;;;;;1.10;1.00;;;;;;;23.43;47.78;97949.38;5071825;28;20200;-69
2022/04/02 11:13:32;;;;;;;2.13;1.33;;;;;;;23.25;47.25;97930.38;5071320;28;20679;-69
2022/04/02 11:15:59;;;;;;;1.40;1.10;;;;;;;23.40;47.35;97928.78;5070070;28;20212;-68
2022/04/02 11:18:26;;;;;;;1.50;1.40;;;;;;;23.59;47.16;97928.47;5071828;28;20591;-69
2022/04/02 11:21:04;;;;;;;1.33;0.97;;;;;;;23.71;43.08;97931.59;5071752;28;20199;-68
2022/04/02 11:23:53;;;;;;;2.10;0.60;;;;;;;23.68;39.43;97924.06;5071873;28;20231;-64
2022/04/02 11:26:21;;;;;;;1.30;1.27;;;;;;;23.69;39.31;97926.50;5071685;28;20224;-63
2022/04/02 11:28:52;;;;;;;0.70;0.70;;;;;;;23.71;42.69;97931.59;5071699;28;20207;-63
2022/04/02 11:31:28;;;;;;;6.40;1.00;;;;;;;23.69;43.65;97926.50;5071478;28;20196;-64
2022/04/02 11:33:55;;;;;;;0.70;0.70;;;;;;;23.57;41.49;97914.75;5071869;28;20725;-64
2022/04/02 11:36:41;;;;;;;1.40;0.50;;;;;;;23.39;40.14;97916.69;5069064;28;20752;-63
2022/04/02 11:39:12;;;;;;;20.77;2.40;;;;;;;23.19;38.24;97925.81;5071441;28;20954;-63
2022/04/02 11:41:42;;;;;;;3.00;0.40;;;;;;;23.22;38.83;97935.94;5071586;28;20568;-63
2022/04/02 11:44:11;;;;;;;3.70;1.00;;;;;;;23.27;39.48;97946.72;5071245;28;21627;-63
2022/04/02 11:47:00;;;;;;;1.00;0.80;;;;;;;23.15;42.17;97934.94;5071563;28;20785;-63